Creedmoor, North Carolina
Current Conditions -  °F | °C
As of 6:51 PM on Tuesday 25 Nov 2014 (Local Time) from KRDU Reporting Station
Light Rain Light Rain  
Wind Chill: 53°   Ceiling: 2500
Heat Index: 53°   Visibility: 10mi
Dew Point: 41°   Wind: 3mph
Humidity: 64%   Direction: 30°NNE
Pressure: 30.07"   Gusts: NA
Location:  36.12°N, 78.69°W
Report Text: KRDU 252351Z 03003KT 10SM -RA BKN025 BKN050 OVC110 12/05 A3007 RMK AO2 SLP182 P0000 60000 T01170050 10150 20117 51006
Loading
Personal Weather Stations






























Interactive Weather Map New forecast layout! Learn more

10-Day Weather Forecast

Advertisements
Track Severe Weather on mobile